Malvern, Pennsylvania
Current Conditions -  °F | °C
As of 1:54 PM on Tuesday 21 Oct 2014 (Local Time) from KPTW Reporting Station
Overcast Overcast  
Wind Chill: 65°   Ceiling: 4400
Heat Index: 65°   Visibility: 10mi
Dew Point: 47°   Wind: 6mph
Humidity: 52%   Direction: 320°NW
Pressure: 29.84"   Gusts: NA
Location:  40.04°N, 75.51°W
Report Text: KPTW 211754Z AUTO 32005KT 10SM OVC044 18/08 A2984 RMK AO2 SLP100 T01830083 10189 20094 58017
Loading
Personal Weather Stations






























Interactive Weather Map
Tropical Storm Tracking
New forecast layout! Learn more

10-Day Weather Forecast

Advertisements
Track Severe Weather on mobile